createdAt,value
2023-04-28T00:01:29.647Z,24.69
2023-04-28T00:03:59.513Z,24.64
2023-04-28T00:06:28.006Z,24.60
2023-04-28T00:08:58.858Z,24.56
2023-04-28T00:11:30.716Z,24.49
2023-04-28T00:14:05.171Z,24.48
2023-04-28T00:16:35.891Z,24.50
2023-04-28T00:19:03.935Z,24.49
2023-04-28T00:21:32.951Z,24.49
2023-04-28T00:24:01.786Z,24.47
2023-04-28T00:29:25.591Z,24.37
2023-04-28T00:31:54.232Z,24.34
2023-04-28T00:34:24.257Z,24.29
2023-04-28T00:36:52.940Z,24.25
2023-04-28T00:39:21.944Z,24.24
2023-04-28T00:41:52.888Z,24.23
2023-04-28T00:44:21.324Z,24.18
2023-04-28T00:46:50.079Z,24.12
2023-04-28T00:49:26.866Z,24.01
2023-04-28T00:51:55.604Z,23.89
2023-04-28T00:54:40.753Z,23.67
2023-04-28T00:57:44.751Z,23.49
2023-04-28T01:00:46.219Z,23.39
2023-04-28T01:03:41.153Z,23.35
2023-04-28T01:07:45.406Z,23.21
2023-04-28T01:20:45.178Z,22.80
2023-04-28T01:31:12.282Z,22.61
2023-04-28T06:46:55.061Z,17.06
2023-04-28T10:22:54.783Z,14.89
2023-04-28T10:46:51.141Z,14.44
2023-04-28T10:58:59.339Z,14.41
2023-04-28T11:07:54.667Z,14.33
2023-04-28T11:11:15.975Z,14.31
2023-04-28T11:21:48.670Z,14.25
2023-04-28T11:28:01.700Z,14.20
2023-04-28T11:31:59.132Z,14.20
2023-04-28T11:50:50.134Z,14.08
2023-04-28T12:13:44.200Z,13.70
2023-04-28T13:16:17.968Z,13.55
2023-04-28T13:19:41.314Z,13.56
2023-04-28T13:22:28.240Z,13.51
2023-04-28T13:31:24.580Z,13.43
2023-04-28T13:37:18.177Z,13.44
2023-04-28T13:39:46.981Z,13.30
2023-04-28T13:42:21.600Z,13.32
2023-04-28T13:45:17.577Z,13.33
2023-04-28T13:47:49.826Z,13.26
2023-04-28T13:50:23.972Z,13.21
2023-04-28T13:53:20.237Z,13.23
2023-04-28T13:55:50.689Z,13.24
2023-04-28T13:58:19.489Z,13.21
2023-04-28T14:00:47.953Z,13.23
2023-04-28T14:03:17.344Z,13.24
2023-04-28T14:08:46.212Z,13.25
2023-04-28T14:11:17.816Z,13.28
2023-04-28T14:13:49.209Z,13.28
2023-04-28T14:16:24.769Z,13.27
2023-04-28T14:19:19.089Z,13.30
2023-04-28T14:22:49.786Z,13.35
2023-04-28T14:25:24.089Z,13.39
2023-04-28T14:27:53.289Z,13.40
2023-04-28T14:43:47.015Z,13.66
2023-04-28T14:46:46.377Z,13.70
2023-04-28T14:49:48.999Z,13.78
2023-04-28T14:55:04.210Z,13.90
2023-04-28T15:01:55.489Z,14.04
2023-04-28T15:07:52.090Z,14.21
2023-04-28T15:10:49.274Z,14.31
2023-04-28T15:13:17.666Z,14.40
2023-04-28T15:16:17.548Z,14.48
2023-04-28T15:18:52.936Z,14.54
2023-04-28T15:21:47.000Z,14.70
2023-04-28T15:24:50.750Z,14.85
2023-04-28T15:39:09.297Z,15.09
2023-04-28T15:42:54.339Z,15.20
2023-04-28T16:11:48.167Z,16.00
2023-04-28T16:38:47.774Z,17.73
2023-04-28T16:41:19.066Z,17.77
2023-04-28T16:43:47.329Z,17.84
2023-04-28T16:46:17.275Z,17.90
2023-04-28T16:48:48.792Z,18.00
2023-04-28T16:51:18.688Z,18.35
2023-04-28T16:53:49.987Z,18.71
2023-04-28T16:56:18.436Z,18.96
2023-04-28T16:58:51.838Z,18.97
2023-04-28T17:01:20.245Z,19.11
2023-04-28T17:04:46.899Z,19.40
2023-04-28T17:07:18.140Z,19.70
2023-04-28T17:09:54.365Z,19.81
2023-04-28T17:15:20.367Z,19.66
2023-04-28T17:17:51.242Z,19.65
2023-04-28T17:20:22.560Z,19.51
2023-04-28T17:23:21.533Z,19.30
2023-04-28T17:26:19.279Z,19.23
2023-04-28T17:36:41.864Z,19.97
2023-04-28T17:38:17.806Z,19.78
2023-04-28T17:42:16.787Z,19.62
2023-04-28T17:45:16.889Z,19.44
2023-04-28T17:48:22.917Z,19.40
2023-04-28T17:51:16.918Z,19.38
2023-04-28T18:00:19.741Z,19.30
2023-04-28T18:06:18.088Z,19.36
2023-04-28T18:18:19.114Z,19.39
2023-04-28T18:24:17.887Z,19.55
2023-04-28T18:30:19.707Z,19.53
2023-04-28T18:33:17.559Z,19.51
2023-04-28T18:38:49.121Z,19.45
2023-04-28T18:41:19.675Z,19.43
2023-04-28T18:45:00.287Z,19.41
2023-04-28T18:50:20.813Z,19.48
2023-04-28T19:06:01.250Z,19.65
2023-04-28T19:08:46.612Z,19.59
2023-04-28T19:11:20.867Z,19.58
2023-04-28T19:14:17.829Z,19.70
2023-04-28T19:17:08.730Z,19.84
2023-04-28T19:20:18.949Z,19.96
2023-04-28T19:22:50.140Z,20.03
2023-04-28T19:25:20.250Z,20.07
2023-04-28T19:34:01.808Z,20.23
2023-04-28T19:37:20.829Z,20.32
2023-04-28T19:40:19.993Z,20.41
2023-04-28T19:46:21.369Z,20.54
2023-04-28T19:49:20.572Z,20.49
2023-04-28T19:55:22.191Z,20.70
2023-04-28T19:58:19.995Z,20.92
2023-04-28T20:06:51.213Z,21.04
2023-04-28T20:09:22.527Z,21.05
2023-04-28T20:19:22.536Z,21.12
2023-04-28T20:31:20.000Z,21.25
2023-04-28T20:39:53.811Z,21.35
2023-04-28T20:42:22.291Z,21.41
2023-04-28T20:48:29.096Z,21.52
2023-04-28T20:50:54.285Z,21.57
2023-04-28T20:53:23.518Z,21.61
2023-04-28T20:55:51.929Z,21.70
2023-04-28T21:01:51.995Z,21.88
2023-04-28T21:04:21.519Z,21.96
2023-04-28T21:06:52.856Z,22.07
2023-04-28T21:09:25.687Z,22.16
2023-04-28T21:12:32.400Z,22.18
2023-04-28T21:14:52.019Z,22.25
2023-04-28T21:22:54.003Z,22.42
2023-04-28T21:25:22.971Z,22.49
2023-04-28T21:27:51.567Z,22.56
2023-04-28T21:30:23.983Z,22.58
2023-04-28T21:32:52.597Z,22.63
2023-04-28T21:35:24.131Z,22.66
2023-04-28T21:38:25.701Z,22.69
2023-04-28T21:40:54.584Z,22.79
2023-04-28T21:44:21.613Z,22.87
2023-04-28T21:46:53.588Z,22.87
2023-04-28T21:49:24.518Z,22.90
2023-04-28T21:57:27.938Z,22.67
2023-04-28T22:11:36.329Z,22.19
2023-04-28T22:16:34.563Z,22.07
2023-04-28T22:19:25.955Z,22.04
2023-04-28T22:25:34.520Z,21.93
2023-04-28T22:33:42.843Z,21.90
2023-04-28T22:36:56.086Z,21.81
2023-04-28T22:39:27.826Z,21.76
2023-04-28T22:41:56.655Z,21.69
2023-04-28T22:44:25.208Z,21.64
2023-04-28T22:50:35.451Z,21.47
